KPLR/PLR METAR and TAF weather

Enter ICAO airport designator
Station Type Date Time Source
KPLR METAR 2018/12/15 22:55 UTC NOAA

KPLR 152255Z AUTO 20004KT 3SM BR SCT003 BKN007 OVC012 09/09 A2999 RMK A01


Station Type Date Time Source
KPLR Decoded METAR 2018/12/15 22:55 UTC NOAA

Station name not available
Dec 15, 2018 - 05:55 PM EST / 2018.12.15 2255 UTC
Wind: from the SSW (200 degrees) at 5 MPH (4 KT):0
Visibility: 3 mile(s):0
Sky conditions: overcast
Weather: mist
Temperature: 48 F (9 C)
Dew Point: 48 F (9 C)
Relative Humidity: 100%
Pressure (altimeter): 29.99 in. Hg (1015 hPa)
ob: KPLR 152255Z AUTO 20004KT 3SM BR SCT003 BKN007 OVC012 09/09 A2999 RMK A01
cycle: 23

Station Type Date Time Source
KPLR TAF UTC NOAA

Error!


Example: see airport list